sensor_id;sensor_type;location;lat;lon;timestamp;pressure;altitude;pressure_sealevel;temperature;humidity
78741;BME280;68062;48.726;9.370;2024-01-27T00:00:17;100488.81;;;2.05;100.00
78741;BME280;68062;48.726;9.370;2024-01-27T00:02:45;100481.53;;;2.25;100.00
78741;BME280;68062;48.726;9.370;2024-01-27T00:05:15;100493.91;;;2.05;100.00
78741;BME280;68062;48.726;9.370;2024-01-27T00:07:43;100502.56;;;1.81;100.00
78741;BME280;68062;48.726;9.370;2024-01-27T00:10:11;100502.81;;;1.43;100.00
78741;BME280;68062;48.726;9.370;2024-01-27T00:12:40;100510.25;;;1.13;100.00
78741;BME280;68062;48.726;9.370;2024-01-27T00:15:09;100515.56;;;0.91;100.00
78741;BME280;68062;48.726;9.370;2024-01-27T00:17:37;100502.47;;;0.71;100.00
78741;BME280;68062;48.726;9.370;2024-01-27T00:20:07;100524.38;;;0.57;100.00
78741;BME280;68062;48.726;9.370;2024-01-27T00:22:35;100524.25;;;0.56;100.00
78741;BME280;68062;48.726;9.370;2024-01-27T00:25:06;100520.28;;;0.34;100.00
78741;BME280;68062;48.726;9.370;2024-01-27T00:27:34;100538.13;;;0.24;100.00
78741;BME280;68062;48.726;9.370;2024-01-27T00:30:02;100528.31;;;0.03;100.00
78741;BME280;68062;48.726;9.370;2024-01-27T00:32:32;100535.09;;;-0.09;100.00
78741;BME280;68062;48.726;9.370;2024-01-27T00:35:01;100528.06;;;-0.13;100.00
78741;BME280;68062;48.726;9.370;2024-01-27T00:37:29;100531.34;;;-0.14;100.00
78741;BME280;68062;48.726;9.370;2024-01-27T00:39:57;100529.81;;;-0.24;100.00
78741;BME280;68062;48.726;9.370;2024-01-27T00:42:26;100530.03;;;-0.21;100.00
78741;BME280;68062;48.726;9.370;2024-01-27T00:44:56;100538.63;;;-0.31;100.00
78741;BME280;68062;48.726;9.370;2024-01-27T00:47:25;100536.44;;;-0.38;100.00
78741;BME280;68062;48.726;9.370;2024-01-27T00:49:54;100548.75;;;-0.43;100.00
78741;BME280;68062;48.726;9.370;2024-01-27T00:52:25;100552.59;;;-0.48;100.00
78741;BME280;68062;48.726;9.370;2024-01-27T00:54:53;100551.38;;;-0.53;100.00
78741;BME280;68062;48.726;9.370;2024-01-27T00:57:21;100554.25;;;-0.61;100.00
78741;BME280;68062;48.726;9.370;2024-01-27T00:59:49;100536.78;;;-0.57;100.00
78741;BME280;68062;48.726;9.370;2024-01-27T01:02:18;100549.97;;;-0.50;100.00
78741;BME280;68062;48.726;9.370;2024-01-27T01:04:46;100553.25;;;-0.63;100.00
78741;BME280;68062;48.726;9.370;2024-01-27T01:07:16;100555.56;;;-0.66;100.00
78741;BME280;68062;48.726;9.370;2024-01-27T01:09:46;100551.41;;;-0.65;100.00
78741;BME280;68062;48.726;9.370;2024-01-27T01:12:14;100556.47;;;-0.65;100.00
78741;BME280;68062;48.726;9.370;2024-01-27T01:14:45;100551.94;;;-0.69;100.00
78741;BME280;68062;48.726;9.370;2024-01-27T01:17:18;100564.69;;;-0.68;100.00
78741;BME280;68062;48.726;9.370;2024-01-27T01:19:46;100567.22;;;-0.80;100.00
78741;BME280;68062;48.726;9.370;2024-01-27T01:22:16;100576.66;;;-0.77;100.00
78741;BME280;68062;48.726;9.370;2024-01-27T01:24:44;100570.06;;;-0.75;100.00
78741;BME280;68062;48.726;9.370;2024-01-27T01:27:14;100585.00;;;-0.90;100.00
78741;BME280;68062;48.726;9.370;2024-01-27T01:29:46;100583.47;;;-0.88;100.00
78741;BME280;68062;48.726;9.370;2024-01-27T01:32:14;100584.41;;;-0.98;100.00
78741;BME280;68062;48.726;9.370;2024-01-27T01:34:42;100567.03;;;-1.05;100.00
78741;BME280;68062;48.726;9.370;2024-01-27T01:37:11;100561.69;;;-1.10;100.00
78741;BME280;68062;48.726;9.370;2024-01-27T01:39:41;100577.97;;;-0.82;100.00
78741;BME280;68062;48.726;9.370;2024-01-27T01:42:09;100561.69;;;-1.10;100.00
78741;BME280;68062;48.726;9.370;2024-01-27T01:44:37;100572.78;;;-0.96;100.00
78741;BME280;68062;48.726;9.370;2024-01-27T01:47:07;100580.03;;;-0.89;100.00
78741;BME280;68062;48.726;9.370;2024-01-27T01:49:37;100569.47;;;-0.95;100.00
78741;BME280;68062;48.726;9.370;2024-01-27T01:52:07;100576.38;;;-1.04;100.00
78741;BME280;68062;48.726;9.370;2024-01-27T01:54:35;100573.75;;;-1.06;100.00
78741;BME280;68062;48.726;9.370;2024-01-27T01:57:05;100584.97;;;-1.02;100.00
78741;BME280;68062;48.726;9.370;2024-01-27T01:59:35;100582.41;;;-1.14;100.00
78741;BME280;68062;48.726;9.370;2024-01-27T02:02:07;100588.09;;;-1.16;100.00
78741;BME280;68062;48.726;9.370;2024-01-27T02:04:39;100588.34;;;-1.13;100.00
78741;BME280;68062;48.726;9.370;2024-01-27T02:07:07;100587.25;;;-1.17;100.00
78741;BME280;68062;48.726;9.370;2024-01-27T02:09:35;100595.34;;;-1.21;100.00
78741;BME280;68062;48.726;9.370;2024-01-27T02:12:06;100604.69;;;-1.20;100.00
78741;BME280;68062;48.726;9.370;2024-01-27T02:14:34;100591.44;;;-1.40;100.00
78741;BME280;68062;48.726;9.370;2024-01-27T02:17:02;100607.06;;;-1.34;100.00
78741;BME280;68062;48.726;9.370;2024-01-27T02:19:30;100617.63;;;-1.27;100.00
78741;BME280;68062;48.726;9.370;2024-01-27T02:21:59;100607.59;;;-1.38;100.00
78741;BME280;68062;48.726;9.370;2024-01-27T02:24:28;100623.09;;;-1.33;100.00
78741;BME280;68062;48.726;9.370;2024-01-27T02:26:56;100613.41;;;-1.39;100.00
78741;BME280;68062;48.726;9.370;2024-01-27T02:29:25;100631.72;;;-1.41;100.00
78741;BME280;68062;48.726;9.370;2024-01-27T02:31:56;100628.50;;;-1.51;100.00
78741;BME280;68062;48.726;9.370;2024-01-27T02:34:24;100627.50;;;-1.53;100.00
78741;BME280;68062;48.726;9.370;2024-01-27T02:36:52;100641.34;;;-1.48;100.00
78741;BME280;68062;48.726;9.370;2024-01-27T02:39:20;100626.75;;;-1.52;100.00
78741;BME280;68062;48.726;9.370;2024-01-27T02:41:49;100654.31;;;-1.43;100.00
78741;BME280;68062;48.726;9.370;2024-01-27T02:44:17;100656.22;;;-1.40;100.00
78741;BME280;68062;48.726;9.370;2024-01-27T02:46:45;100657.50;;;-1.45;100.00
78741;BME280;68062;48.726;9.370;2024-01-27T02:49:14;100659.84;;;-1.59;100.00
78741;BME280;68062;48.726;9.370;2024-01-27T02:51:43;100652.59;;;-1.54;100.00
78741;BME280;68062;48.726;9.370;2024-01-27T02:54:12;100665.34;;;-1.53;100.00
78741;BME280;68062;48.726;9.370;2024-01-27T02:56:40;100664.13;;;-1.58;100.00
78741;BME280;68062;48.726;9.370;2024-01-27T02:59:11;100556.31;;;-2.26;100.00
78741;BME280;68062;48.726;9.370;2024-01-27T03:01:39;100646.66;;;-1.77;100.00
78741;BME280;68062;48.726;9.370;2024-01-27T03:04:07;100655.13;;;-1.76;100.00
78741;BME280;68062;48.726;9.370;2024-01-27T03:06:35;100657.88;;;-1.73;100.00
78741;BME280;68062;48.726;9.370;2024-01-27T03:09:03;100657.16;;;-1.83;100.00
78741;BME280;68062;48.726;9.370;2024-01-27T03:11:31;100659.72;;;-1.93;100.00
78741;BME280;68062;48.726;9.370;2024-01-27T03:13:59;100673.69;;;-1.86;100.00
78741;BME280;68062;48.726;9.370;2024-01-27T03:16:28;100668.50;;;-1.78;100.00
78741;BME280;68062;48.726;9.370;2024-01-27T03:18:56;100666.56;;;-1.70;100.00
78741;BME280;68062;48.726;9.370;2024-01-27T03:21:23;100670.75;;;-1.70;100.00
78741;BME280;68062;48.726;9.370;2024-01-27T03:23:51;100665.84;;;-1.79;100.00
78741;BME280;68062;48.726;9.370;2024-01-27T03:26:19;100674.31;;;-1.79;100.00
78741;BME280;68062;48.726;9.370;2024-01-27T03:28:47;100678.59;;;-1.78;100.00
78741;BME280;68062;48.726;9.370;2024-01-27T03:31:15;100675.78;;;-1.70;100.00
78741;BME280;68062;48.726;9.370;2024-01-27T03:33:48;100674.50;;;-1.65;100.00
78741;BME280;68062;48.726;9.370;2024-01-27T03:36:16;100670.56;;;-1.61;100.00
78741;BME280;68062;48.726;9.370;2024-01-27T03:38:45;100678.03;;;-1.63;100.00
78741;BME280;68062;48.726;9.370;2024-01-27T03:41:13;100667.72;;;-1.76;100.00
78741;BME280;68062;48.726;9.370;2024-01-27T03:43:41;100689.16;;;-1.71;100.00
78741;BME280;68062;48.726;9.370;2024-01-27T03:46:10;100672.53;;;-1.80;100.00
78741;BME280;68062;48.726;9.370;2024-01-27T03:48:40;100686.53;;;-1.83;100.00
78741;BME280;68062;48.726;9.370;2024-01-27T03:51:10;100695.16;;;-2.02;100.00
78741;BME280;68062;48.726;9.370;2024-01-27T03:53:38;100697.06;;;-1.99;100.00
78741;BME280;68062;48.726;9.370;2024-01-27T03:56:06;100701.50;;;-2.07;100.00
78741;BME280;68062;48.726;9.370;2024-01-27T03:58:34;100703.50;;;-2.03;100.00
78741;BME280;68062;48.726;9.370;2024-01-27T04:01:03;100700.34;;;-2.00;100.00
78741;BME280;68062;48.726;9.370;2024-01-27T04:03:31;100701.59;;;-1.95;100.00
78741;BME280;68062;48.726;9.370;2024-01-27T04:05:59;100699.09;;;-2.05;100.00
78741;BME280;68062;48.726;9.370;2024-01-27T04:08:30;100705.22;;;-1.92;100.00
78741;BME280;68062;48.726;9.370;2024-01-27T04:10:59;100703.38;;;-1.94;100.00
78741;BME280;68062;48.726;9.370;2024-01-27T04:13:26;100698.44;;;-2.03;100.00
78741;BME280;68062;48.726;9.370;2024-01-27T04:15:57;100706.16;;;-2.01;100.00
78741;BME280;68062;48.726;9.370;2024-01-27T04:18:28;100704.28;;;-2.14;100.00
78741;BME280;68062;48.726;9.370;2024-01-27T04:20:57;100707.28;;;-2.08;100.00
78741;BME280;68062;48.726;9.370;2024-01-27T04:23:28;100712.72;;;-2.03;100.00
78741;BME280;68062;48.726;9.370;2024-01-27T04:26:01;100714.75;;;-2.10;100.00
78741;BME280;68062;48.726;9.370;2024-01-27T04:28:29;100710.72;;;-2.08;100.00
78741;BME280;68062;48.726;9.370;2024-01-27T04:30:58;100708.94;;;-2.09;100.00
78741;BME280;68062;48.726;9.370;2024-01-27T04:33:26;100711.34;;;-2.31;100.00
78741;BME280;68062;48.726;9.370;2024-01-27T04:35:54;100709.72;;;-2.20;100.00
78741;BME280;68062;48.726;9.370;2024-01-27T04:38:22;100690.31;;;-2.31;100.00
78741;BME280;68062;48.726;9.370;2024-01-27T04:40:53;100714.88;;;-2.18;100.00
78741;BME280;68062;48.726;9.370;2024-01-27T04:43:23;100715.88;;;-2.16;100.00
78741;BME280;68062;48.726;9.370;2024-01-27T04:45:51;100714.63;;;-2.22;100.00
78741;BME280;68062;48.726;9.370;2024-01-27T04:48:19;100719.31;;;-2.26;100.00
78741;BME280;68062;48.726;9.370;2024-01-27T04:50:48;100725.34;;;-2.24;100.00
78741;BME280;68062;48.726;9.370;2024-01-27T04:53:17;100726.13;;;-2.25;100.00
78741;BME280;68062;48.726;9.370;2024-01-27T04:55:45;100731.66;;;-2.19;100.00
78741;BME280;68062;48.726;9.370;2024-01-27T04:58:13;100730.50;;;-2.23;100.00
78741;BME280;68062;48.726;9.370;2024-01-27T05:00:43;100730.75;;;-2.30;100.00
78741;BME280;68062;48.726;9.370;2024-01-27T05:03:11;100727.88;;;-2.34;100.00
78741;BME280;68062;48.726;9.370;2024-01-27T05:05:43;100724.47;;;-2.45;100.00
78741;BME280;68062;48.726;9.370;2024-01-27T05:08:16;100732.94;;;-2.55;100.00
78741;BME280;68062;48.726;9.370;2024-01-27T05:10:44;100711.25;;;-2.63;100.00
78741;BME280;68062;48.726;9.370;2024-01-27T05:13:12;100725.88;;;-2.59;100.00
78741;BME280;68062;48.726;9.370;2024-01-27T05:15:40;100722.84;;;-2.55;100.00
78741;BME280;68062;48.726;9.370;2024-01-27T05:18:10;100715.81;;;-2.70;100.00
78741;BME280;68062;48.726;9.370;2024-01-27T05:20:38;100730.53;;;-2.74;100.00
78741;BME280;68062;48.726;9.370;2024-01-27T05:23:06;100729.66;;;-2.75;100.00
78741;BME280;68062;48.726;9.370;2024-01-27T05:25:34;100733.06;;;-2.74;100.00
78741;BME280;68062;48.726;9.370;2024-01-27T05:28:02;100716.19;;;-2.86;100.00
78741;BME280;68062;48.726;9.370;2024-01-27T05:30:30;100722.34;;;-2.72;100.00
78741;BME280;68062;48.726;9.370;2024-01-27T05:32:59;100733.31;;;-2.71;100.00
78741;BME280;68062;48.726;9.370;2024-01-27T05:35:28;100730.03;;;-2.60;100.00
78741;BME280;68062;48.726;9.370;2024-01-27T05:37:56;100724.72;;;-2.53;100.00
78741;BME280;68062;48.726;9.370;2024-01-27T05:40:24;100725.38;;;-2.66;100.00
78741;BME280;68062;48.726;9.370;2024-01-27T05:42:52;100735.44;;;-2.66;100.00
78741;BME280;68062;48.726;9.370;2024-01-27T05:45:20;100725.38;;;-2.66;100.00
78741;BME280;68062;48.726;9.370;2024-01-27T05:47:49;100740.75;;;-2.62;100.00
78741;BME280;68062;48.726;9.370;2024-01-27T05:50:18;100748.56;;;-2.59;100.00
78741;BME280;68062;48.726;9.370;2024-01-27T05:52:48;100737.47;;;-2.72;100.00
78741;BME280;68062;48.726;9.370;2024-01-27T05:55:16;100732.56;;;-2.70;100.00
78741;BME280;68062;48.726;9.370;2024-01-27T05:57:44;100737.72;;;-2.69;100.00
78741;BME280;68062;48.726;9.370;2024-01-27T06:00:13;100740.13;;;-2.70;100.00
78741;BME280;68062;48.726;9.370;2024-01-27T06:02:41;100745.00;;;-2.72;100.00
78741;BME280;68062;48.726;9.370;2024-01-27T06:05:09;100727.13;;;-2.75;100.00
78741;BME280;68062;48.726;9.370;2024-01-27T06:07:38;100733.31;;;-2.71;100.00
78741;BME280;68062;48.726;9.370;2024-01-27T06:10:17;100734.31;;;-2.69;100.00
78741;BME280;68062;48.726;9.370;2024-01-27T06:12:46;100732.31;;;-2.73;100.00
78741;BME280;68062;48.726;9.370;2024-01-27T06:15:14;100741.50;;;-2.74;100.00
78741;BME280;68062;48.726;9.370;2024-01-27T06:17:43;100747.16;;;-2.76;100.00
78741;BME280;68062;48.726;9.370;2024-01-27T06:20:11;100754.09;;;-2.74;100.00
78741;BME280;68062;48.726;9.370;2024-01-27T06:22:40;100740.09;;;-2.81;100.00
78741;BME280;68062;48.726;9.370;2024-01-27T06:25:08;100743.72;;;-2.87;100.00
78741;BME280;68062;48.726;9.370;2024-01-27T06:27:38;100744.72;;;-2.96;100.00
78741;BME280;68062;48.726;9.370;2024-01-27T06:30:11;100739.41;;;-3.09;100.00
78741;BME280;68062;48.726;9.370;2024-01-27T06:32:42;100739.19;;;-3.02;100.00
78741;BME280;68062;48.726;9.370;2024-01-27T06:35:10;100758.06;;;-2.97;100.00
78741;BME280;68062;48.726;9.370;2024-01-27T06:37:39;100758.06;;;-2.97;100.00
78741;BME280;68062;48.726;9.370;2024-01-27T06:40:08;100749.75;;;-2.96;100.00
78741;BME280;68062;48.726;9.370;2024-01-27T06:42:36;100761.25;;;-2.89;100.00
78741;BME280;68062;48.726;9.370;2024-01-27T06:45:07;100766.63;;;-2.94;100.00
78741;BME280;68062;48.726;9.370;2024-01-27T06:47:36;100766.63;;;-2.94;100.00
78741;BME280;68062;48.726;9.370;2024-01-27T06:50:04;100772.66;;;-3.03;100.00
78741;BME280;68062;48.726;9.370;2024-01-27T06:52:33;100778.72;;;-3.01;100.00
78741;BME280;68062;48.726;9.370;2024-01-27T06:55:01;100775.94;;;-3.04;100.00
78741;BME280;68062;48.726;9.370;2024-01-27T06:57:29;100787.16;;;-3.00;100.00
78741;BME280;68062;48.726;9.370;2024-01-27T06:59:57;100778.84;;;-2.99;100.00
78741;BME280;68062;48.726;9.370;2024-01-27T07:02:27;100779.19;;;-3.05;100.00
78741;BME280;68062;48.726;9.370;2024-01-27T07:04:55;100762.97;;;-3.08;100.00
78741;BME280;68062;48.726;9.370;2024-01-27T07:07:25;100771.28;;;-3.09;100.00
78741;BME280;68062;48.726;9.370;2024-01-27T07:09:54;100784.72;;;-3.09;100.00
78741;BME280;68062;48.726;9.370;2024-01-27T07:12:23;100792.91;;;-3.12;100.00
78741;BME280;68062;48.726;9.370;2024-01-27T07:14:53;100785.25;;;-3.03;100.00
78741;BME280;68062;48.726;9.370;2024-01-27T07:17:23;100780.47;;;-3.00;100.00
78741;BME280;68062;48.726;9.370;2024-01-27T07:19:53;100781.75;;;-2.94;100.00
78741;BME280;68062;48.726;9.370;2024-01-27T07:22:22;100789.97;;;-2.87;100.00
78741;BME280;68062;48.726;9.370;2024-01-27T07:24:50;100792.59;;;-2.85;100.00
78741;BME280;68062;48.726;9.370;2024-01-27T07:27:19;100780.91;;;-2.85;100.00
78741;BME280;68062;48.726;9.370;2024-01-27T07:29:46;100785.31;;;-2.72;100.00
78741;BME280;68062;48.726;9.370;2024-01-27T07:32:15;100786.19;;;-2.61;100.00
78741;BME280;68062;48.726;9.370;2024-01-27T07:34:43;100784.69;;;-2.59;100.00
78741;BME280;68062;48.726;9.370;2024-01-27T07:37:13;100791.75;;;-2.44;100.00
78741;BME280;68062;48.726;9.370;2024-01-27T07:39:41;100782.19;;;-2.38;100.00
78741;BME280;68062;48.726;9.370;2024-01-27T07:42:11;100789.75;;;-2.07;100.00
78741;BME280;68062;48.726;9.370;2024-01-27T07:44:39;100745.63;;;-2.12;100.00
78741;BME280;68062;48.726;9.370;2024-01-27T07:47:07;100778.19;;;-1.62;100.00
78741;BME280;68062;48.726;9.370;2024-01-27T07:49:35;100777.53;;;-1.27;100.00
78741;BME280;68062;48.726;9.370;2024-01-27T07:52:05;100777.09;;;-1.11;100.00
78741;BME280;68062;48.726;9.370;2024-01-27T07:54:34;100776.50;;;-0.74;100.00
78741;BME280;68062;48.726;9.370;2024-01-27T07:57:05;100782.19;;;-0.54;100.00
78741;BME280;68062;48.726;9.370;2024-01-27T07:59:34;100772.59;;;-0.24;100.00
78741;BME280;68062;48.726;9.370;2024-01-27T08:02:02;100787.34;;;0.05;100.00
78741;BME280;68062;48.726;9.370;2024-01-27T08:04:30;100776.03;;;0.24;100.00
78741;BME280;68062;48.726;9.370;2024-01-27T08:06:58;100777.66;;;0.59;100.00
78741;BME280;68062;48.726;9.370;2024-01-27T08:09:34;100777.06;;;0.87;100.00
78741;BME280;68062;48.726;9.370;2024-01-27T08:12:03;100787.78;;;1.20;100.00
78741;BME280;68062;48.726;9.370;2024-01-27T08:14:31;100767.97;;;1.40;100.00
78741;BME280;68062;48.726;9.370;2024-01-27T08:17:00;100787.25;;;1.63;100.00
78741;BME280;68062;48.726;9.370;2024-01-27T08:19:31;100771.38;;;1.66;100.00
78741;BME280;68062;48.726;9.370;2024-01-27T08:21:59;100752.00;;;2.06;100.00
78741;BME280;68062;48.726;9.370;2024-01-27T08:24:27;100777.72;;;2.38;100.00
78741;BME280;68062;48.726;9.370;2024-01-27T08:26:58;100773.25;;;2.76;100.00
78741;BME280;68062;48.726;9.370;2024-01-27T08:29:27;100777.47;;;3.17;95.92
78741;BME280;68062;48.726;9.370;2024-01-27T08:31:55;100770.44;;;3.57;92.88
78741;BME280;68062;48.726;9.370;2024-01-27T08:34:23;100773.53;;;3.81;89.83
78741;BME280;68062;48.726;9.370;2024-01-27T08:36:51;100760.97;;;3.99;89.36
78741;BME280;68062;48.726;9.370;2024-01-27T08:39:19;100733.19;;;4.19;86.56
78741;BME280;68062;48.726;9.370;2024-01-27T08:41:47;100770.28;;;4.77;83.07
78741;BME280;68062;48.726;9.370;2024-01-27T08:44:16;100770.06;;;4.72;83.60
78741;BME280;68062;48.726;9.370;2024-01-27T08:46:44;100769.44;;;4.76;84.07
78741;BME280;68062;48.726;9.370;2024-01-27T08:49:14;100760.44;;;4.83;83.78
78741;BME280;68062;48.726;9.370;2024-01-27T08:51:42;100762.53;;;5.07;82.53
78741;BME280;68062;48.726;9.370;2024-01-27T08:54:10;100759.50;;;5.30;80.75
78741;BME280;68062;48.726;9.370;2024-01-27T08:56:39;100749.09;;;5.60;79.66
78741;BME280;68062;48.726;9.370;2024-01-27T08:59:07;100751.56;;;5.59;78.27
78741;BME280;68062;48.726;9.370;2024-01-27T09:01:36;100750.19;;;5.66;78.61
78741;BME280;68062;48.726;9.370;2024-01-27T09:04:05;100743.16;;;5.96;77.57
78741;BME280;68062;48.726;9.370;2024-01-27T09:06:32;100748.47;;;6.17;76.33
78741;BME280;68062;48.726;9.370;2024-01-27T09:09:01;100746.94;;;6.39;75.28
78741;BME280;68062;48.726;9.370;2024-01-27T09:11:29;100746.25;;;6.61;74.87
78741;BME280;68062;48.726;9.370;2024-01-27T09:13:58;100738.81;;;7.05;72.57
78741;BME280;68062;48.726;9.370;2024-01-27T09:16:26;100736.84;;;7.39;70.43
78741;BME280;68062;48.726;9.370;2024-01-27T09:18:55;100742.84;;;7.80;69.17
78741;BME280;68062;48.726;9.370;2024-01-27T09:21:24;100741.81;;;7.56;67.63
78741;BME280;68062;48.726;9.370;2024-01-27T09:23:55;100741.91;;;7.38;69.65
78741;BME280;68062;48.726;9.370;2024-01-27T09:26:24;100745.69;;;7.06;69.73
78741;BME280;68062;48.726;9.370;2024-01-27T09:28:52;100752.81;;;6.94;71.14
78741;BME280;68062;48.726;9.370;2024-01-27T09:31:21;100747.78;;;7.35;70.21
78741;BME280;68062;48.726;9.370;2024-01-27T09:33:53;100738.28;;;7.73;68.25
78741;BME280;68062;48.726;9.370;2024-01-27T09:36:23;100736.59;;;7.95;67.26
78741;BME280;68062;48.726;9.370;2024-01-27T09:38:52;100739.69;;;8.09;66.03
78741;BME280;68062;48.726;9.370;2024-01-27T09:41:21;100741.44;;;8.10;66.40
78741;BME280;68062;48.726;9.370;2024-01-27T09:43:49;100744.78;;;8.51;64.67
78741;BME280;68062;48.726;9.370;2024-01-27T09:46:17;100753.28;;;8.96;63.15
78741;BME280;68062;48.726;9.370;2024-01-27T09:48:46;100761.66;;;9.15;61.22
78741;BME280;68062;48.726;9.370;2024-01-27T09:51:14;100754.56;;;8.85;62.24
78741;BME280;68062;48.726;9.370;2024-01-27T09:53:44;100754.72;;;8.89;62.64
78741;BME280;68062;48.726;9.370;2024-01-27T09:56:12;100765.91;;;9.14;62.51
78741;BME280;68062;48.726;9.370;2024-01-27T09:58:45;100762.63;;;9.94;59.14
78741;BME280;68062;48.726;9.370;2024-01-27T10:01:16;100759.25;;;10.23;59.00
78741;BME280;68062;48.726;9.370;2024-01-27T10:03:47;100767.81;;;10.80;57.84
78741;BME280;68062;48.726;9.370;2024-01-27T10:06:15;100761.16;;;11.17;55.72
78741;BME280;68062;48.726;9.370;2024-01-27T10:08:52;100778.31;;;11.82;54.16
78741;BME280;68062;48.726;9.370;2024-01-27T10:11:21;100776.63;;;12.18;52.72
78741;BME280;68062;48.726;9.370;2024-01-27T10:13:53;100782.91;;;12.66;50.54
78741;BME280;68062;48.726;9.370;2024-01-27T10:16:26;100782.22;;;12.75;51.26
78741;BME280;68062;48.726;9.370;2024-01-27T10:19:02;100786.16;;;12.99;49.92
78741;BME280;68062;48.726;9.370;2024-01-27T10:21:30;100782.13;;;13.13;49.51
78741;BME280;68062;48.726;9.370;2024-01-27T10:24:01;100772.53;;;13.50;48.25
78741;BME280;68062;48.726;9.370;2024-01-27T10:26:32;100781.78;;;13.87;47.46
78741;BME280;68062;48.726;9.370;2024-01-27T10:29:02;100774.25;;;13.99;46.40
78741;BME280;68062;48.726;9.370;2024-01-27T10:31:34;100766.44;;;13.97;47.01
78741;BME280;68062;48.726;9.370;2024-01-27T10:34:02;100770.00;;;14.06;47.40
78741;BME280;68062;48.726;9.370;2024-01-27T10:36:38;100766.63;;;14.08;46.49
78741;BME280;68062;48.726;9.370;2024-01-27T10:39:18;100766.81;;;14.22;46.44
78741;BME280;68062;48.726;9.370;2024-01-27T10:41:49;100757.31;;;14.20;45.11
78741;BME280;68062;48.726;9.370;2024-01-27T10:44:19;100762.84;;;14.46;45.10
78741;BME280;68062;48.726;9.370;2024-01-27T10:46:48;100753.78;;;14.76;44.41
78741;BME280;68062;48.726;9.370;2024-01-27T10:49:17;100754.91;;;14.97;44.06
78741;BME280;68062;48.726;9.370;2024-01-27T10:51:52;100763.47;;;14.91;44.16
78741;BME280;68062;48.726;9.370;2024-01-27T10:54:23;100757.34;;;14.86;44.23
78741;BME280;68062;48.726;9.370;2024-01-27T10:56:53;100752.25;;;14.92;44.29
78741;BME280;68062;48.726;9.370;2024-01-27T10:59:22;100736.16;;;15.21;44.10
78741;BME280;68062;48.726;9.370;2024-01-27T11:01:54;100736.22;;;15.26;43.20
78741;BME280;68062;48.726;9.370;2024-01-27T11:04:23;100726.53;;;15.06;43.51
78741;BME280;68062;48.726;9.370;2024-01-27T11:06:52;100708.63;;;14.54;44.59
78741;BME280;68062;48.726;9.370;2024-01-27T11:09:22;100706.03;;;13.42;46.19
78741;BME280;68062;48.726;9.370;2024-01-27T11:11:50;100710.34;;;12.14;49.19
78741;BME280;68062;48.726;9.370;2024-01-27T11:14:19;100704.97;;;11.02;51.61
78741;BME280;68062;48.726;9.370;2024-01-27T11:16:47;100700.41;;;10.05;53.86
78741;BME280;68062;48.726;9.370;2024-01-27T11:19:17;100700.69;;;9.09;57.93
78741;BME280;68062;48.726;9.370;2024-01-27T11:21:44;100697.47;;;8.45;59.85
78741;BME280;68062;48.726;9.370;2024-01-27T11:24:14;100696.72;;;8.24;61.75
78741;BME280;68062;48.726;9.370;2024-01-27T11:26:44;100689.63;;;8.17;61.25
78741;BME280;68062;48.726;9.370;2024-01-27T11:29:13;100688.72;;;7.94;63.73
78741;BME280;68062;48.726;9.370;2024-01-27T11:31:48;100668.31;;;7.32;65.97
78741;BME280;68062;48.726;9.370;2024-01-27T11:34:17;100665.78;;;7.12;66.43
78741;BME280;68062;48.726;9.370;2024-01-27T11:36:47;100679.81;;;6.63;67.63
78741;BME280;68062;48.726;9.370;2024-01-27T11:39:25;100682.81;;;6.53;68.93
78741;BME280;68062;48.726;9.370;2024-01-27T11:42:06;100674.50;;;6.39;70.61
78741;BME280;68062;48.726;9.370;2024-01-27T11:44:34;100676.63;;;6.29;71.19
78741;BME280;68062;48.726;9.370;2024-01-27T11:47:03;100665.91;;;6.56;70.79
78741;BME280;68062;48.726;9.370;2024-01-27T11:49:32;100663.13;;;7.11;67.94
78741;BME280;68062;48.726;9.370;2024-01-27T11:52:00;100657.25;;;7.75;66.04
78741;BME280;68062;48.726;9.370;2024-01-27T11:54:29;100651.16;;;8.40;62.15
78741;BME280;68062;48.726;9.370;2024-01-27T11:56:56;100654.25;;;9.27;60.33
78741;BME280;68062;48.726;9.370;2024-01-27T11:59:26;100651.09;;;9.89;56.69
78741;BME280;68062;48.726;9.370;2024-01-27T12:01:54;100647.31;;;9.78;56.13
78741;BME280;68062;48.726;9.370;2024-01-27T12:04:22;100646.78;;;9.88;56.44
78741;BME280;68062;48.726;9.370;2024-01-27T12:06:50;100633.47;;;9.47;56.69
78741;BME280;68062;48.726;9.370;2024-01-27T12:09:17;100640.31;;;9.74;56.93
78741;BME280;68062;48.726;9.370;2024-01-27T12:11:46;100634.44;;;10.05;55.52
78741;BME280;68062;48.726;9.370;2024-01-27T12:14:14;100635.13;;;10.57;54.03
78741;BME280;68062;48.726;9.370;2024-01-27T12:16:44;100644.66;;;10.33;54.79
78741;BME280;68062;48.726;9.370;2024-01-27T12:19:14;100652.59;;;10.69;54.83
78741;BME280;68062;48.726;9.370;2024-01-27T12:21:47;100635.78;;;11.14;52.88
78741;BME280;68062;48.726;9.370;2024-01-27T12:24:16;100605.31;;;10.98;51.63
78741;BME280;68062;48.726;9.370;2024-01-27T12:26:49;100633.44;;;11.97;51.43
78741;BME280;68062;48.726;9.370;2024-01-27T12:29:19;100622.13;;;12.73;48.08
78741;BME280;68062;48.726;9.370;2024-01-27T12:31:49;100622.06;;;13.18;46.16
78741;BME280;68062;48.726;9.370;2024-01-27T12:34:17;100623.44;;;14.06;45.84
78741;BME280;68062;48.726;9.370;2024-01-27T12:36:47;100616.56;;;14.81;43.40
78741;BME280;68062;48.726;9.370;2024-01-27T12:39:20;100599.97;;;15.56;46.03
78741;BME280;68062;48.726;9.370;2024-01-27T12:41:49;100599.81;;;15.37;42.86
78741;BME280;68062;48.726;9.370;2024-01-27T12:44:16;100604.44;;;15.83;44.18
78741;BME280;68062;48.726;9.370;2024-01-27T12:46:45;100590.75;;;16.04;43.91
78741;BME280;68062;48.726;9.370;2024-01-27T12:49:14;100579.69;;;16.65;46.25
78741;BME280;68062;48.726;9.370;2024-01-27T12:51:42;100551.16;;;16.79;40.40
78741;BME280;68062;48.726;9.370;2024-01-27T12:54:12;100582.34;;;16.75;40.55